createdAt,value
2018-11-01T00:01:16.092Z,52.9
2018-11-01T00:06:24.232Z,52.8
2018-11-01T00:11:32.386Z,52.8
2018-11-01T00:16:40.545Z,53
2018-11-01T00:32:05.012Z,53.2
2018-11-01T00:47:29.665Z,53.6
2018-11-01T00:57:47.203Z,53.6
2018-11-01T01:02:54.275Z,53.7
2018-11-01T01:08:02.466Z,54
2018-11-01T01:18:18.953Z,54.2
2018-11-01T01:28:35.753Z,54.2
2018-11-01T01:38:51.992Z,54.9
2018-11-01T01:44:00.252Z,54.9
2018-11-01T01:49:08.510Z,54.4
2018-11-01T01:54:16.765Z,54.4
2018-11-01T01:59:24.928Z,54.8
2018-11-01T02:14:49.790Z,54.7
2018-11-01T02:19:58.026Z,54
2018-11-01T02:30:14.568Z,53.9
2018-11-01T02:35:22.810Z,54.1
2018-11-01T02:40:30.959Z,53.4
2018-11-01T02:45:39.275Z,53.4
2018-11-01T02:50:47.535Z,53.5
2018-11-01T03:01:03.860Z,53.3
2018-11-01T03:11:20.377Z,52.9
2018-11-01T03:21:36.849Z,52.4
2018-11-01T03:26:45.094Z,52.7
2018-11-01T03:31:53.350Z,52.3
2018-11-01T03:42:09.848Z,52
2018-11-01T04:02:42.888Z,52.4
2018-11-01T04:07:51.148Z,51.9
2018-11-01T04:12:59.379Z,52.4
2018-11-01T04:18:07.720Z,52.3
2018-11-01T04:23:15.898Z,52
2018-11-01T04:28:24.285Z,52.8
2018-11-01T04:33:32.597Z,52.5
2018-11-01T04:43:49.219Z,52.4
2018-11-01T04:48:57.506Z,52.6
2018-11-01T04:54:05.794Z,52.6
2018-11-01T04:59:14.124Z,52.5
2018-11-01T05:04:22.445Z,52.4
2018-11-01T05:09:30.766Z,52.4
2018-11-01T05:14:39.122Z,52.8
2018-11-01T05:19:47.428Z,52.9
2018-11-01T05:24:55.775Z,52.6
2018-11-01T05:30:04.099Z,52.8
2018-11-01T05:45:29.148Z,52.8
2018-11-01T05:50:37.554Z,52.5
2018-11-01T05:55:45.842Z,52.7
2018-11-01T06:00:54.198Z,52.5
2018-11-01T06:11:10.933Z,52.9
2018-11-01T06:16:19.297Z,52.8
2018-11-01T06:21:27.697Z,53.1
2018-11-01T06:26:36.082Z,53.1
2018-11-01T06:31:44.505Z,53.3
2018-11-01T06:36:53.264Z,53.2
2018-11-01T06:42:01.316Z,53.4
2018-11-01T06:47:09.616Z,53.5
2018-11-01T06:57:26.533Z,53.8
2018-11-01T07:07:43.373Z,53.8
2018-11-01T07:23:08.674Z,54
2018-11-01T07:28:17.019Z,53.8
2018-11-01T07:33:25.397Z,53.9
2018-11-01T07:38:33.795Z,53.9
2018-11-01T07:48:50.518Z,53.1
2018-11-01T07:53:58.826Z,53
2018-11-01T07:59:07.166Z,51.6
2018-11-01T08:09:23.767Z,50.3
2018-11-01T08:14:31.946Z,50.3
2018-11-01T08:19:40.177Z,51
2018-11-01T08:24:48.358Z,51
2018-11-01T08:29:56.543Z,50.1
2018-11-01T08:35:04.704Z,50.3
2018-11-01T08:40:12.814Z,49.5
2018-11-01T08:45:20.937Z,50.1
2018-11-01T08:50:29.031Z,50
2018-11-01T08:55:37.104Z,47.7
2018-11-01T09:05:53.151Z,47.7
2018-11-01T09:11:01.251Z,49
2018-11-01T09:16:09.299Z,49
2018-11-01T09:21:17.334Z,48.7
2018-11-01T09:31:33.393Z,48.1
2018-11-01T09:36:41.400Z,48.3
2018-11-01T09:41:49.444Z,48.9
2018-11-01T09:46:57.356Z,48.9
2018-11-01T09:52:05.449Z,48.9
2018-11-01T09:57:13.459Z,47.9
2018-11-01T10:02:21.477Z,49.2
2018-11-01T10:07:29.472Z,48
2018-11-01T10:12:37.425Z,48.9
2018-11-01T10:17:45.427Z,49.3
2018-11-01T10:22:53.407Z,48.2
2018-11-01T10:28:01.419Z,48.2
2018-11-01T10:33:09.368Z,48.6
2018-11-01T10:38:17.334Z,49
2018-11-01T10:48:33.315Z,47.4
2018-11-01T10:53:41.243Z,48.2
2018-11-01T10:58:49.250Z,48.4
2018-11-01T11:03:57.189Z,47.4
2018-11-01T11:09:05.127Z,47.5
2018-11-01T11:14:12.991Z,48.3
2018-11-01T11:19:21.397Z,47.6
2018-11-01T11:24:29.132Z,47.3
2018-11-01T11:29:36.953Z,47.5
2018-11-01T11:34:44.823Z,48.4
2018-11-01T11:39:52.859Z,48
2018-11-01T11:45:00.877Z,48.6
2018-11-01T11:50:08.870Z,49.2
2018-11-01T11:55:16.741Z,47.6
2018-11-01T12:00:24.716Z,47.8
2018-11-01T12:05:32.535Z,48.7
2018-11-01T12:15:48.398Z,48.1
2018-11-01T12:20:56.393Z,48.5
2018-11-01T12:36:20.280Z,47.8
2018-11-01T12:41:28.070Z,47.7
2018-11-01T12:46:35.994Z,47.7
2018-11-01T12:51:43.946Z,48.1
2018-11-01T12:56:51.795Z,47.8
2018-11-01T13:07:07.562Z,48.4
2018-11-01T13:12:15.551Z,47.9
2018-11-01T13:17:23.434Z,47.3
2018-11-01T13:27:39.268Z,47.6
2018-11-01T13:32:47.150Z,48.4
2018-11-01T13:37:55.092Z,48.4
2018-11-01T13:43:02.932Z,47.6
2018-11-01T13:48:10.956Z,48
2018-11-01T13:53:18.888Z,47.7
2018-11-01T13:58:26.826Z,47.3
2018-11-01T14:13:50.705Z,49.3
2018-11-01T14:29:14.622Z,49.3
2018-11-01T14:34:22.659Z,50.4
2018-11-01T14:39:30.623Z,50.9
2018-11-01T14:44:38.685Z,51.8
2018-11-01T14:49:46.668Z,52.3
2018-11-01T14:54:54.666Z,52.8
2018-11-01T15:00:02.711Z,53.4
2018-11-01T15:05:10.780Z,53.9
2018-11-01T15:10:18.754Z,54.1
2018-11-01T15:15:26.781Z,54.2
2018-11-01T15:20:34.813Z,54.2
2018-11-01T15:25:42.870Z,54.7
2018-11-01T15:30:51.005Z,54.7
2018-11-01T15:41:07.117Z,55.2
2018-11-01T15:46:15.179Z,55.5
2018-11-01T15:56:31.367Z,55.8
2018-11-01T16:01:39.495Z,56.1
2018-11-01T16:11:55.767Z,55.9
2018-11-01T16:22:11.964Z,56.4
2018-11-01T16:27:20.209Z,57.4
2018-11-01T16:32:28.359Z,57
2018-11-01T16:37:36.569Z,57.5
2018-11-01T16:42:46.278Z,57.8
2018-11-01T16:47:52.943Z,57.9
2018-11-01T16:53:02.394Z,58.3
2018-11-01T16:58:09.487Z,57.9
2018-11-01T17:08:25.908Z,59.2
2018-11-01T17:13:34.191Z,59.3
2018-11-01T17:18:42.404Z,59.9
2018-11-01T17:23:50.654Z,59.9
2018-11-01T17:28:58.920Z,59.9
2018-11-01T17:44:23.657Z,59.7
2018-11-01T17:49:31.873Z,59.4
2018-11-01T17:54:40.098Z,59.6
2018-11-01T17:59:48.376Z,59.9
2018-11-01T18:10:04.843Z,59.8
2018-11-01T18:15:13.079Z,59.5
2018-11-01T18:25:29.537Z,59.4
2018-11-01T18:30:37.752Z,59.6
2018-11-01T18:35:45.969Z,59.6
2018-11-01T18:40:54.180Z,59.5
2018-11-01T18:51:10.594Z,59.5
2018-11-01T18:56:18.805Z,59.7
2018-11-01T19:06:35.208Z,59.3
2018-11-01T19:16:51.599Z,59.3
2018-11-01T19:27:08.026Z,59.3
2018-11-01T19:37:24.489Z,59.8
2018-11-01T19:52:49.169Z,60.3
2018-11-01T20:08:14.087Z,60.8
2018-11-01T20:18:30.502Z,61.1
2018-11-01T20:28:47.165Z,61.3
2018-11-01T20:39:03.769Z,61.1
2018-11-01T20:49:20.320Z,60.9
2018-11-01T20:54:28.647Z,61.2
2018-11-01T21:09:53.545Z,61
2018-11-01T21:15:01.890Z,61.2
2018-11-01T21:20:10.145Z,60.8
2018-11-01T21:30:26.718Z,61.4
2018-11-01T21:35:34.991Z,61.4
2018-11-01T21:40:43.327Z,61.7
2018-11-01T21:45:51.561Z,61.3
2018-11-01T21:50:59.856Z,61.4
2018-11-01T21:56:08.155Z,61.4
2018-11-01T22:01:16.443Z,61.5
2018-11-01T22:06:24.718Z,61.3
2018-11-01T22:16:41.194Z,61.5
2018-11-01T22:21:49.593Z,61.8
2018-11-01T22:32:06.142Z,61.3
2018-11-01T22:37:14.385Z,62
2018-11-01T22:52:39.266Z,61.4
2018-11-01T23:02:55.765Z,61.4
2018-11-01T23:08:04.077Z,61.8
2018-11-01T23:13:12.272Z,61.9
2018-11-01T23:18:20.563Z,61.8
2018-11-01T23:23:28.940Z,61.6
2018-11-01T23:33:45.517Z,62.7
2018-11-01T23:38:53.819Z,62.4
2018-11-01T23:44:02.030Z,62.8
2018-11-01T23:54:18.595Z,63.4
